sensor_id;sensor_type;location;lat;lon;timestamp;pressure;altitude;pressure_sealevel;temperature;humidity
59493;BME280;45497;43.996;22.876;2022-09-01T00:00:11;100892.31;;;23.44;59.65
59493;BME280;45497;43.996;22.876;2022-09-01T00:02:39;100895.22;;;23.38;59.88
59493;BME280;45497;43.996;22.876;2022-09-01T00:05:07;100892.50;;;23.38;59.90
59493;BME280;45497;43.996;22.876;2022-09-01T00:07:33;100889.25;;;23.36;59.96
59493;BME280;45497;43.996;22.876;2022-09-01T00:10:19;100888.69;;;23.34;59.70
59493;BME280;45497;43.996;22.876;2022-09-01T00:12:44;100879.16;;;23.31;59.95
59493;BME280;45497;43.996;22.876;2022-09-01T00:15:11;100879.47;;;23.35;59.82
59493;BME280;45497;43.996;22.876;2022-09-01T00:17:37;100877.00;;;23.33;60.04
59493;BME280;45497;43.996;22.876;2022-09-01T00:20:04;100875.72;;;23.36;59.91
59493;BME280;45497;43.996;22.876;2022-09-01T00:22:30;100871.03;;;23.31;60.25
59493;BME280;45497;43.996;22.876;2022-09-01T00:24:58;100867.78;;;23.29;60.24
59493;BME280;45497;43.996;22.876;2022-09-01T00:27:23;100879.97;;;23.32;60.18
59493;BME280;45497;43.996;22.876;2022-09-01T00:29:49;100879.41;;;23.29;60.15
59493;BME280;45497;43.996;22.876;2022-09-01T00:32:14;100878.28;;;23.25;60.47
59493;BME280;45497;43.996;22.876;2022-09-01T00:34:40;100876.38;;;23.26;60.43
59493;BME280;45497;43.996;22.876;2022-09-01T00:37:06;100878.53;;;23.24;60.56
59493;BME280;45497;43.996;22.876;2022-09-01T00:39:32;100874.44;;;23.21;60.61
59493;BME280;45497;43.996;22.876;2022-09-01T00:41:57;100877.41;;;23.20;60.87
59493;BME280;45497;43.996;22.876;2022-09-01T00:44:23;100874.69;;;23.20;60.75
59493;BME280;45497;43.996;22.876;2022-09-01T00:46:53;100869.53;;;23.18;60.69
59493;BME280;45497;43.996;22.876;2022-09-01T00:49:29;100871.09;;;23.14;60.96
59493;BME280;45497;43.996;22.876;2022-09-01T00:52:10;100870.28;;;23.14;61.02
59493;BME280;45497;43.996;22.876;2022-09-01T00:54:45;100868.97;;;23.16;61.01
59493;BME280;45497;43.996;22.876;2022-09-01T00:57:12;100866.50;;;23.15;61.09
59493;BME280;45497;43.996;22.876;2022-09-01T01:00:37;100876.75;;;23.13;60.98
59493;BME280;45497;43.996;22.876;2022-09-01T01:03:12;100878.34;;;23.08;60.93
59493;BME280;45497;43.996;22.876;2022-09-01T01:05:40;100870.47;;;23.07;60.89
59493;BME280;45497;43.996;22.876;2022-09-01T01:08:49;100867.19;;;23.05;60.39
59493;BME280;45497;43.996;22.876;2022-09-01T01:11:29;100880.19;;;23.08;60.64
59493;BME280;45497;43.996;22.876;2022-09-01T01:14:07;100877.19;;;23.04;60.75
59493;BME280;45497;43.996;22.876;2022-09-01T01:16:39;100878.22;;;23.03;60.91
59493;BME280;45497;43.996;22.876;2022-09-01T01:25:23;100872.25;;;23.01;61.27
59493;BME280;45497;43.996;22.876;2022-09-01T01:27:49;100873.81;;;22.97;61.20
59493;BME280;45497;43.996;22.876;2022-09-01T01:30:17;100875.38;;;22.93;61.10
59493;BME280;45497;43.996;22.876;2022-09-01T01:32:43;100872.59;;;22.88;61.10
59493;BME280;45497;43.996;22.876;2022-09-01T01:37:05;100869.47;;;22.79;61.64
59493;BME280;45497;43.996;22.876;2022-09-01T01:39:31;100876.47;;;22.75;61.51
59493;BME280;45497;43.996;22.876;2022-09-01T01:41:57;100878.69;;;22.78;61.54
59493;BME280;45497;43.996;22.876;2022-09-01T01:44:25;100882.59;;;22.70;61.74
59493;BME280;45497;43.996;22.876;2022-09-01T01:46:53;100880.97;;;22.69;61.42
59493;BME280;45497;43.996;22.876;2022-09-01T01:49:22;100878.59;;;22.73;61.29
59493;BME280;45497;43.996;22.876;2022-09-01T01:51:50;100888.66;;;22.78;61.13
59493;BME280;45497;43.996;22.876;2022-09-01T01:54:21;100900.06;;;22.80;60.81
59493;BME280;45497;43.996;22.876;2022-09-01T01:56:47;100898.66;;;22.77;60.77
59493;BME280;45497;43.996;22.876;2022-09-01T01:59:13;100884.72;;;22.68;61.10
59493;BME280;45497;43.996;22.876;2022-09-01T02:01:39;100892.59;;;22.70;60.73
59493;BME280;45497;43.996;22.876;2022-09-01T02:04:08;100903.72;;;22.74;60.57
59493;BME280;45497;43.996;22.876;2022-09-01T02:06:36;100902.34;;;22.71;60.43
59493;BME280;45497;43.996;22.876;2022-09-01T02:09:06;100904.47;;;22.69;60.31
59493;BME280;45497;43.996;22.876;2022-09-01T02:11:32;100902.59;;;22.69;60.35
59493;BME280;45497;43.996;22.876;2022-09-01T02:14:03;100902.25;;;22.66;60.06
59493;BME280;45497;43.996;22.876;2022-09-01T02:18:43;100895.63;;;22.57;60.22
59493;BME280;45497;43.996;22.876;2022-09-01T02:21:13;100889.91;;;22.53;60.20
59493;BME280;45497;43.996;22.876;2022-09-01T02:23:45;100892.28;;;22.49;60.22
59493;BME280;45497;43.996;22.876;2022-09-01T02:26:12;100892.53;;;22.48;60.34
59493;BME280;45497;43.996;22.876;2022-09-01T02:28:39;100888.72;;;22.49;60.27
59493;BME280;45497;43.996;22.876;2022-09-01T02:31:08;100884.31;;;22.43;60.48
59493;BME280;45497;43.996;22.876;2022-09-01T02:33:37;100890.78;;;22.42;60.50
59493;BME280;45497;43.996;22.876;2022-09-01T02:36:06;100889.41;;;22.39;60.60
59493;BME280;45497;43.996;22.876;2022-09-01T02:38:33;100899.47;;;22.44;60.45
59493;BME280;45497;43.996;22.876;2022-09-01T02:41:02;100887.50;;;22.40;60.22
59493;BME280;45497;43.996;22.876;2022-09-01T02:43:29;100895.59;;;22.40;60.49
59493;BME280;45497;43.996;22.876;2022-09-01T02:47:59;100886.59;;;22.34;60.76
59493;BME280;45497;43.996;22.876;2022-09-01T02:50:24;100882.63;;;22.37;60.80
59493;BME280;45497;43.996;22.876;2022-09-01T02:52:51;100883.66;;;22.36;60.70
59493;BME280;45497;43.996;22.876;2022-09-01T02:55:17;100890.44;;;22.38;60.89
59493;BME280;45497;43.996;22.876;2022-09-01T02:57:48;100886.78;;;22.27;60.95
59493;BME280;45497;43.996;22.876;2022-09-01T03:01:32;100901.09;;;22.28;61.10
59493;BME280;45497;43.996;22.876;2022-09-01T03:04:01;100897.78;;;22.26;61.23
59493;BME280;45497;43.996;22.876;2022-09-01T03:06:28;100906.50;;;22.28;61.08
59493;BME280;45497;43.996;22.876;2022-09-01T03:08:57;100908.03;;;22.24;61.44
59493;BME280;45497;43.996;22.876;2022-09-01T03:11:28;100900.16;;;22.22;61.67
59493;BME280;45497;43.996;22.876;2022-09-01T03:13:55;100900.00;;;22.29;61.46
59493;BME280;45497;43.996;22.876;2022-09-01T03:16:21;100905.75;;;22.32;61.43
59493;BME280;45497;43.996;22.876;2022-09-01T03:18:50;100895.56;;;22.35;61.20
59493;BME280;45497;43.996;22.876;2022-09-01T03:21:41;100885.00;;;22.33;61.44
59493;BME280;45497;43.996;22.876;2022-09-01T03:24:10;100885.00;;;22.33;61.29
59493;BME280;45497;43.996;22.876;2022-09-01T03:26:37;100891.78;;;22.36;61.41
59493;BME280;45497;43.996;22.876;2022-09-01T03:29:03;100885.22;;;22.31;61.46
59493;BME280;45497;43.996;22.876;2022-09-01T03:33:41;100886.91;;;22.21;62.11
59493;BME280;45497;43.996;22.876;2022-09-01T03:36:54;100887.38;;;22.18;62.42
59493;BME280;45497;43.996;22.876;2022-09-01T03:39:20;100888.25;;;22.06;62.53
59493;BME280;45497;43.996;22.876;2022-09-01T03:41:46;100875.56;;;22.07;62.92
59493;BME280;45497;43.996;22.876;2022-09-01T03:44:13;100881.31;;;22.10;63.00
59493;BME280;45497;43.996;22.876;2022-09-01T03:46:41;100888.53;;;22.22;62.64
59493;BME280;45497;43.996;22.876;2022-09-01T03:49:08;100886.16;;;22.25;62.45
59493;BME280;45497;43.996;22.876;2022-09-01T03:51:40;100893.91;;;22.33;62.56
59493;BME280;45497;43.996;22.876;2022-09-01T03:54:07;100905.59;;;22.39;62.35
59493;BME280;45497;43.996;22.876;2022-09-01T03:56:32;100894.00;;;22.39;62.68
59493;BME280;45497;43.996;22.876;2022-09-01T03:58:59;100894.31;;;22.42;62.48
59493;BME280;45497;43.996;22.876;2022-09-01T04:01:26;100904.63;;;22.45;62.62
59493;BME280;45497;43.996;22.876;2022-09-01T04:03:52;100899.28;;;22.50;62.29
59493;BME280;45497;43.996;22.876;2022-09-01T04:06:20;100904.56;;;22.57;62.07
59493;BME280;45497;43.996;22.876;2022-09-01T04:08:49;100892.41;;;22.60;61.98
59493;BME280;45497;43.996;22.876;2022-09-01T04:11:18;100892.19;;;22.61;61.74
59493;BME280;45497;43.996;22.876;2022-09-01T04:13:48;100901.47;;;22.65;61.40
59493;BME280;45497;43.996;22.876;2022-09-01T04:16:26;100901.78;;;22.69;61.62
59493;BME280;45497;43.996;22.876;2022-09-01T04:19:12;100899.13;;;22.74;61.43
59493;BME280;45497;43.996;22.876;2022-09-01T04:21:46;100898.66;;;22.77;61.22
59493;BME280;45497;43.996;22.876;2022-09-01T04:24:15;100900.53;;;22.77;61.42
59493;BME280;45497;43.996;22.876;2022-09-01T04:26:41;100903.16;;;22.71;61.53
59493;BME280;45497;43.996;22.876;2022-09-01T04:29:07;100900.13;;;22.68;61.53
59493;BME280;45497;43.996;22.876;2022-09-01T04:31:35;100909.47;;;22.77;61.33
59493;BME280;45497;43.996;22.876;2022-09-01T04:34:03;100908.50;;;22.83;61.18
59493;BME280;45497;43.996;22.876;2022-09-01T04:36:35;100911.69;;;22.80;61.27
59493;BME280;45497;43.996;22.876;2022-09-01T04:39:03;100898.41;;;22.79;61.04
59493;BME280;45497;43.996;22.876;2022-09-01T04:41:35;100900.94;;;22.85;61.15
59493;BME280;45497;43.996;22.876;2022-09-01T04:44:02;100915.75;;;23.00;60.79
59493;BME280;45497;43.996;22.876;2022-09-01T04:46:30;100916.88;;;23.04;60.71
59493;BME280;45497;43.996;22.876;2022-09-01T04:48:57;100914.81;;;23.28;59.87
59493;BME280;45497;43.996;22.876;2022-09-01T04:51:24;100918.16;;;23.35;59.94
59493;BME280;45497;43.996;22.876;2022-09-01T04:53:53;100922.38;;;23.26;60.12
59493;BME280;45497;43.996;22.876;2022-09-01T04:56:20;100912.56;;;23.20;60.46
59493;BME280;45497;43.996;22.876;2022-09-01T04:58:48;100918.44;;;23.17;60.58
59493;BME280;45497;43.996;22.876;2022-09-01T05:01:17;100907.56;;;23.12;60.57
59493;BME280;45497;43.996;22.876;2022-09-01T05:03:44;100922.41;;;23.09;60.76
59493;BME280;45497;43.996;22.876;2022-09-01T05:06:18;100910.50;;;23.10;60.98
59493;BME280;45497;43.996;22.876;2022-09-01T05:08:44;100918.22;;;23.18;60.71
59493;BME280;45497;43.996;22.876;2022-09-01T05:11:11;100907.47;;;23.23;60.61
59493;BME280;45497;43.996;22.876;2022-09-01T05:13:37;100915.91;;;23.27;60.65
59493;BME280;45497;43.996;22.876;2022-09-01T05:16:09;100921.56;;;23.25;60.51
59493;BME280;45497;43.996;22.876;2022-09-01T05:18:39;100912.63;;;23.25;60.75
59493;BME280;45497;43.996;22.876;2022-09-01T05:21:07;100914.78;;;23.23;60.93
59493;BME280;45497;43.996;22.876;2022-09-01T05:23:38;100911.78;;;23.24;60.88
59493;BME280;45497;43.996;22.876;2022-09-01T05:26:10;100920.50;;;23.26;60.81
59493;BME280;45497;43.996;22.876;2022-09-01T05:28:46;100917.28;;;23.29;60.72
59493;BME280;45497;43.996;22.876;2022-09-01T05:31:12;100911.63;;;23.31;60.56
59493;BME280;45497;43.996;22.876;2022-09-01T05:33:38;100912.94;;;23.28;60.70
59493;BME280;45497;43.996;22.876;2022-09-01T05:36:11;100922.69;;;23.29;60.85
59493;BME280;45497;43.996;22.876;2022-09-01T05:38:38;100917.84;;;23.32;60.79
59493;BME280;45497;43.996;22.876;2022-09-01T05:41:07;100914.81;;;23.28;61.00
59493;BME280;45497;43.996;22.876;2022-09-01T05:43:34;100911.28;;;23.27;61.07
59493;BME280;45497;43.996;22.876;2022-09-01T05:46:01;100906.13;;;23.26;61.26
59493;BME280;45497;43.996;22.876;2022-09-01T05:48:30;100908.59;;;23.27;61.24
59493;BME280;45497;43.996;22.876;2022-09-01T05:50:57;100911.06;;;23.29;61.34
59493;BME280;45497;43.996;22.876;2022-09-01T05:53:25;100909.78;;;23.37;60.91
59493;BME280;45497;43.996;22.876;2022-09-01T05:55:55;100909.53;;;23.38;60.88
59493;BME280;45497;43.996;22.876;2022-09-01T05:58:26;100918.44;;;23.34;61.19
59493;BME280;45497;43.996;22.876;2022-09-01T06:00:53;100916.13;;;23.25;61.30
59493;BME280;45497;43.996;22.876;2022-09-01T06:03:21;100897.69;;;23.22;61.45
59493;BME280;45497;43.996;22.876;2022-09-01T06:05:47;100893.94;;;23.23;61.56
59493;BME280;45497;43.996;22.876;2022-09-01T06:08:19;100904.00;;;23.28;61.28
59493;BME280;45497;43.996;22.876;2022-09-01T06:10:46;100902.53;;;23.20;61.77
59493;BME280;45497;43.996;22.876;2022-09-01T06:13:12;100902.22;;;23.17;61.89
59493;BME280;45497;43.996;22.876;2022-09-01T06:15:40;100906.38;;;23.24;61.84
59493;BME280;45497;43.996;22.876;2022-09-01T06:18:08;100904.13;;;23.16;62.12
59493;BME280;45497;43.996;22.876;2022-09-01T06:20:39;100909.59;;;23.21;62.09
59493;BME280;45497;43.996;22.876;2022-09-01T06:23:06;100910.72;;;23.25;61.77
59493;BME280;45497;43.996;22.876;2022-09-01T06:25:31;100911.78;;;23.24;61.73
59493;BME280;45497;43.996;22.876;2022-09-01T06:27:57;100909.41;;;23.28;61.63
59493;BME280;45497;43.996;22.876;2022-09-01T06:30:24;100909.47;;;23.33;61.58
59493;BME280;45497;43.996;22.876;2022-09-01T06:32:53;100901.19;;;23.40;61.46
59493;BME280;45497;43.996;22.876;2022-09-01T06:35:20;100918.19;;;23.57;61.00
59493;BME280;45497;43.996;22.876;2022-09-01T06:37:46;100916.69;;;23.44;61.22
59493;BME280;45497;43.996;22.876;2022-09-01T06:40:14;100912.81;;;23.40;61.08
59493;BME280;45497;43.996;22.876;2022-09-01T06:42:45;100917.00;;;23.48;61.29
59493;BME280;45497;43.996;22.876;2022-09-01T06:45:13;100927.28;;;23.51;61.21
59493;BME280;45497;43.996;22.876;2022-09-01T06:47:40;100928.38;;;23.50;61.13
59493;BME280;45497;43.996;22.876;2022-09-01T06:50:09;100931.91;;;23.51;61.03
59493;BME280;45497;43.996;22.876;2022-09-01T06:52:35;100932.84;;;23.39;61.59
59493;BME280;45497;43.996;22.876;2022-09-01T06:55:05;100928.72;;;23.37;61.33
59493;BME280;45497;43.996;22.876;2022-09-01T06:57:30;100931.50;;;23.42;61.25
59493;BME280;45497;43.996;22.876;2022-09-01T06:59:56;100933.72;;;23.45;61.43
59493;BME280;45497;43.996;22.876;2022-09-01T07:02:22;100928.47;;;23.38;61.58
59493;BME280;45497;43.996;22.876;2022-09-01T07:04:47;100928.81;;;23.42;61.46
59493;BME280;45497;43.996;22.876;2022-09-01T07:07:14;100940.31;;;23.32;62.02
59493;BME280;45497;43.996;22.876;2022-09-01T07:09:39;100937.94;;;23.19;62.35
59493;BME280;45497;43.996;22.876;2022-09-01T07:12:05;100931.88;;;23.28;62.39
59493;BME280;45497;43.996;22.876;2022-09-01T07:14:31;100949.00;;;23.34;62.18
59493;BME280;45497;43.996;22.876;2022-09-01T07:16:57;100947.34;;;23.33;62.17
59493;BME280;45497;43.996;22.876;2022-09-01T07:19:24;100957.84;;;23.29;62.56
59493;BME280;45497;43.996;22.876;2022-09-01T07:21:50;100952.88;;;23.21;62.85
59493;BME280;45497;43.996;22.876;2022-09-01T07:24:16;100954.19;;;23.19;62.32
59493;BME280;45497;43.996;22.876;2022-09-01T07:26:43;100957.03;;;23.29;62.33
59493;BME280;45497;43.996;22.876;2022-09-01T07:31:30;100956.03;;;23.35;61.71
59493;BME280;45497;43.996;22.876;2022-09-01T07:33:59;100954.16;;;23.36;61.96
59493;BME280;45497;43.996;22.876;2022-09-01T07:36:26;100958.16;;;23.33;61.97
59493;BME280;45497;43.996;22.876;2022-09-01T07:38:52;100963.81;;;23.48;61.71
59493;BME280;45497;43.996;22.876;2022-09-01T07:41:23;100964.41;;;23.34;61.64
59493;BME280;45497;43.996;22.876;2022-09-01T07:43:50;100953.06;;;23.37;62.09
59493;BME280;45497;43.996;22.876;2022-09-01T07:46:19;100948.13;;;23.51;61.69
59493;BME280;45497;43.996;22.876;2022-09-01T07:48:45;100946.38;;;23.61;61.46
59493;BME280;45497;43.996;22.876;2022-09-01T07:51:12;100940.97;;;23.61;61.19
59493;BME280;45497;43.996;22.876;2022-09-01T07:53:43;100955.81;;;23.59;61.05
59493;BME280;45497;43.996;22.876;2022-09-01T07:56:10;100943.78;;;23.50;61.27
59493;BME280;45497;43.996;22.876;2022-09-01T07:58:37;100950.94;;;23.39;61.68
59493;BME280;45497;43.996;22.876;2022-09-01T08:01:08;100952.09;;;23.43;61.83
59493;BME280;45497;43.996;22.876;2022-09-01T08:03:34;100953.06;;;23.54;61.22
59493;BME280;45497;43.996;22.876;2022-09-01T08:06:09;100948.13;;;23.51;61.53
59493;BME280;45497;43.996;22.876;2022-09-01T08:08:36;100934.66;;;23.56;61.64
59493;BME280;45497;43.996;22.876;2022-09-01T08:11:02;100942.34;;;23.64;61.63
59493;BME280;45497;43.996;22.876;2022-09-01T08:13:29;100933.59;;;23.79;61.12
59493;BME280;45497;43.996;22.876;2022-09-01T08:15:55;100942.72;;;23.95;60.59
59493;BME280;45497;43.996;22.876;2022-09-01T08:18:20;100943.94;;;23.82;60.61
59493;BME280;45497;43.996;22.876;2022-09-01T08:20:46;100938.84;;;23.85;60.38
59493;BME280;45497;43.996;22.876;2022-09-01T08:23:15;100937.00;;;23.91;60.05
59493;BME280;45497;43.996;22.876;2022-09-01T08:25:42;100933.59;;;24.01;60.04
59493;BME280;45497;43.996;22.876;2022-09-01T08:28:08;100945.59;;;24.10;59.84
59493;BME280;45497;43.996;22.876;2022-09-01T08:30:36;100932.56;;;24.07;59.65
59493;BME280;45497;43.996;22.876;2022-09-01T08:33:02;100943.63;;;24.00;59.52
59493;BME280;45497;43.996;22.876;2022-09-01T08:35:28;100935.75;;;23.99;59.66
59493;BME280;45497;43.996;22.876;2022-09-01T08:37:54;100947.50;;;24.10;59.68
59493;BME280;45497;43.996;22.876;2022-09-01T08:47:06;100952.75;;;24.21;59.34
59493;BME280;45497;43.996;22.876;2022-09-01T08:49:33;100947.09;;;24.23;59.18
59493;BME280;45497;43.996;22.876;2022-09-01T08:52:25;100948.50;;;24.31;59.20
59493;BME280;45497;43.996;22.876;2022-09-01T08:57:41;100939.19;;;24.43;58.79
59493;BME280;45497;43.996;22.876;2022-09-01T09:00:11;100942.03;;;24.59;58.70
59493;BME280;45497;43.996;22.876;2022-09-01T09:03:08;100947.34;;;24.81;58.00
59493;BME280;45497;43.996;22.876;2022-09-01T09:06:06;100949.75;;;25.15;56.42
59493;BME280;45497;43.996;22.876;2022-09-01T09:14:13;100942.25;;;25.75;54.77
59493;BME280;45497;43.996;22.876;2022-09-01T09:16:46;100944.66;;;25.71;55.04
59493;BME280;45497;43.996;22.876;2022-09-01T09:21:55;100947.66;;;25.75;54.86
59493;BME280;45497;43.996;22.876;2022-09-01T09:24:39;100941.50;;;25.95;54.41
59493;BME280;45497;43.996;22.876;2022-09-01T09:27:27;100933.41;;;26.21;53.19
59493;BME280;45497;43.996;22.876;2022-09-01T09:30:05;100935.31;;;26.36;52.40
59493;BME280;45497;43.996;22.876;2022-09-01T09:35:33;100917.69;;;26.69;51.86
59493;BME280;45497;43.996;22.876;2022-09-01T09:43:26;100903.44;;;27.39;50.10
59493;BME280;45497;43.996;22.876;2022-09-01T09:49:14;100890.97;;;27.07;50.13
59493;BME280;45497;43.996;22.876;2022-09-01T09:51:56;100884.94;;;27.20;49.97
59493;BME280;45497;43.996;22.876;2022-09-01T09:54:26;100885.19;;;27.39;49.32
59493;BME280;45497;43.996;22.876;2022-09-01T09:59:41;100899.31;;;27.41;49.06
59493;BME280;45497;43.996;22.876;2022-09-01T10:02:35;100896.69;;;27.11;49.30
59493;BME280;45497;43.996;22.876;2022-09-01T10:08:02;100883.91;;;27.01;49.60
59493;BME280;45497;43.996;22.876;2022-09-01T10:10:44;100893.16;;;27.05;49.63
59493;BME280;45497;43.996;22.876;2022-09-01T10:13:24;100886.31;;;27.13;49.24
59493;BME280;45497;43.996;22.876;2022-09-01T10:15:53;100881.66;;;27.23;49.27
59493;BME280;45497;43.996;22.876;2022-09-01T10:18:25;100876.50;;;27.17;49.07
59493;BME280;45497;43.996;22.876;2022-09-01T10:23:21;100866.91;;;27.45;48.48
59493;BME280;45497;43.996;22.876;2022-09-01T10:25:49;100866.88;;;27.50;48.62
59493;BME280;45497;43.996;22.876;2022-09-01T10:28:20;100865.75;;;27.56;48.69
59493;BME280;45497;43.996;22.876;2022-09-01T10:30:50;100856.75;;;27.61;48.41
59493;BME280;45497;43.996;22.876;2022-09-01T10:33:18;100853.53;;;27.54;48.54
59493;BME280;45497;43.996;22.876;2022-09-01T10:35:48;100859.19;;;27.62;48.62
59493;BME280;45497;43.996;22.876;2022-09-01T10:38:20;100856.94;;;27.75;47.53
59493;BME280;45497;43.996;22.876;2022-09-01T10:40:48;100850.34;;;27.86;47.19
59493;BME280;45497;43.996;22.876;2022-09-01T10:43:44;100851.72;;;27.78;47.23
59493;BME280;45497;43.996;22.876;2022-09-01T10:48:48;100849.22;;;27.87;47.49
59493;BME280;45497;43.996;22.876;2022-09-01T10:53:59;100850.88;;;27.93;46.64
59493;BME280;45497;43.996;22.876;2022-09-01T10:56:46;100847.78;;;28.00;46.63
59493;BME280;45497;43.996;22.876;2022-09-01T11:05:08;100847.38;;;27.82;47.25
59493;BME280;45497;43.996;22.876;2022-09-01T11:09:44;100845.19;;;27.79;47.23
59493;BME280;45497;43.996;22.876;2022-09-01T11:12:46;100829.63;;;27.90;46.97
59493;BME280;45497;43.996;22.876;2022-09-01T11:15:31;100841.22;;;28.06;46.27
59493;BME280;45497;43.996;22.876;2022-09-01T11:20:23;100840.16;;;28.36;46.08
59493;BME280;45497;43.996;22.876;2022-09-01T11:30:55;100830.09;;;28.02;46.58
59493;BME280;45497;43.996;22.876;2022-09-01T11:39:06;100817.75;;;27.71;46.73
59493;BME280;45497;43.996;22.876;2022-09-01T11:44:13;100816.31;;;27.78;46.94
59493;BME280;45497;43.996;22.876;2022-09-01T11:46:39;100809.22;;;27.82;46.63
59493;BME280;45497;43.996;22.876;2022-09-01T11:49:25;100806.94;;;28.00;46.49
59493;BME280;45497;43.996;22.876;2022-09-01T11:51:52;100802.03;;;28.02;46.41
59493;BME280;45497;43.996;22.876;2022-09-01T11:54:18;100801.44;;;28.05;46.64
59493;BME280;45497;43.996;22.876;2022-09-01T11:56:44;100806.53;;;28.17;46.74
59493;BME280;45497;43.996;22.876;2022-09-01T11:59:09;100800.41;;;28.30;45.96
59493;BME280;45497;43.996;22.876;2022-09-01T12:01:37;100797.63;;;28.35;45.75
59493;BME280;45497;43.996;22.876;2022-09-01T12:04:24;100788.06;;;28.38;45.47
59493;BME280;45497;43.996;22.876;2022-09-01T12:07:04;100787.19;;;28.42;45.23
59493;BME280;45497;43.996;22.876;2022-09-01T12:09:36;100785.75;;;28.50;45.06
59493;BME280;45497;43.996;22.876;2022-09-01T12:12:05;100779.19;;;28.56;45.14
59493;BME280;45497;43.996;22.876;2022-09-01T12:14:31;100784.59;;;28.62;45.17
59493;BME280;45497;43.996;22.876;2022-09-01T12:17:06;100775.38;;;28.52;45.30
59493;BME280;45497;43.996;22.876;2022-09-01T12:19:34;100772.13;;;28.50;45.17
59493;BME280;45497;43.996;22.876;2022-09-01T12:22:22;100771.75;;;28.62;45.29
59493;BME280;45497;43.996;22.876;2022-09-01T12:24:51;100758.47;;;28.79;44.98
59493;BME280;45497;43.996;22.876;2022-09-01T12:27:18;100762.41;;;28.92;44.88
59493;BME280;45497;43.996;22.876;2022-09-01T12:29:45;100763.19;;;28.93;44.27
59493;BME280;45497;43.996;22.876;2022-09-01T12:32:12;100758.94;;;29.06;44.26
59493;BME280;45497;43.996;22.876;2022-09-01T12:34:56;100756.63;;;29.18;44.09
59493;BME280;45497;43.996;22.876;2022-09-01T12:37:24;100748.81;;;29.30;43.74
59493;BME280;45497;43.996;22.876;2022-09-01T12:39:52;100752.19;;;29.41;43.56
59493;BME280;45497;43.996;22.876;2022-09-01T12:44:56;100757.31;;;29.48;42.77
59493;BME280;45497;43.996;22.876;2022-09-01T12:50:31;100749.22;;;29.57;43.01
59493;BME280;45497;43.996;22.876;2022-09-01T12:52:57;100750.06;;;29.57;42.79
59493;BME280;45497;43.996;22.876;2022-09-01T12:55:25;100751.97;;;29.76;42.80
59493;BME280;45497;43.996;22.876;2022-09-01T12:57:56;100741.19;;;29.84;42.16
59493;BME280;45497;43.996;22.876;2022-09-01T13:00:24;100744.19;;;29.83;42.20
59493;BME280;45497;43.996;22.876;2022-09-01T13:03:26;100749.88;;;29.86;41.91
59493;BME280;45497;43.996;22.876;2022-09-01T13:05:54;100750.09;;;29.90;41.99
59493;BME280;45497;43.996;22.876;2022-09-01T13:08:23;100747.44;;;29.85;41.56
59493;BME280;45497;43.996;22.876;2022-09-01T13:11:14;100754.69;;;29.57;41.34
59493;BME280;45497;43.996;22.876;2022-09-01T13:13:42;100745.84;;;29.65;41.64
59493;BME280;45497;43.996;22.876;2022-09-01T13:16:07;100744.94;;;29.69;41.28
59493;BME280;45497;43.996;22.876;2022-09-01T13:18:37;100748.78;;;29.68;41.11
59493;BME280;45497;43.996;22.876;2022-09-01T13:21:03;100735.19;;;29.63;40.81
59493;BME280;45497;43.996;22.876;2022-09-01T13:23:29;100743.97;;;29.60;41.03
59493;BME280;45497;43.996;22.876;2022-09-01T13:25:55;100743.25;;;29.54;40.98
59493;BME280;45497;43.996;22.876;2022-09-01T13:28:23;100738.00;;;29.58;41.67
59493;BME280;45497;43.996;22.876;2022-09-01T13:30:57;100742.50;;;29.68;41.17
59493;BME280;45497;43.996;22.876;2022-09-01T13:33:24;100736.38;;;29.76;41.06
59493;BME280;45497;43.996;22.876;2022-09-01T13:35:50;100741.47;;;29.83;41.11
59493;BME280;45497;43.996;22.876;2022-09-01T13:38:16;100735.63;;;29.70;41.75
59493;BME280;45497;43.996;22.876;2022-09-01T13:40:44;100730.53;;;29.64;42.56
59493;BME280;45497;43.996;22.876;2022-09-01T13:43:12;100737.03;;;29.68;42.75
59493;BME280;45497;43.996;22.876;2022-09-01T13:45:37;100732.09;;;29.70;42.29
59493;BME280;45497;43.996;22.876;2022-09-01T13:48:06;100734.22;;;29.73;42.61
59493;BME280;45497;43.996;22.876;2022-09-01T13:50:32;100732.38;;;29.68;42.63
59493;BME280;45497;43.996;22.876;2022-09-01T13:52:57;100736.59;;;29.80;42.56
59493;BME280;45497;43.996;22.876;2022-09-01T13:55:26;100722.94;;;29.80;42.60
59493;BME280;45497;43.996;22.876;2022-09-01T13:57:52;100718.72;;;29.87;42.51
59493;BME280;45497;43.996;22.876;2022-09-01T14:00:20;100718.72;;;29.87;42.35
59493;BME280;45497;43.996;22.876;2022-09-01T14:02:50;100715.16;;;29.87;42.20
59493;BME280;45497;43.996;22.876;2022-09-01T14:05:23;100722.97;;;29.93;42.26
59493;BME280;45497;43.996;22.876;2022-09-01T14:07:50;100706.38;;;29.90;42.43
59493;BME280;45497;43.996;22.876;2022-09-01T14:10:17;100713.06;;;29.98;42.78
59493;BME280;45497;43.996;22.876;2022-09-01T14:12:43;100715.69;;;30.03;42.76
59493;BME280;45497;43.996;22.876;2022-09-01T14:15:12;100718.34;;;30.08;42.57
59493;BME280;45497;43.996;22.876;2022-09-01T14:17:38;100720.50;;;30.11;42.42
59493;BME280;45497;43.996;22.876;2022-09-01T14:20:07;100719.97;;;30.09;41.93
59493;BME280;45497;43.996;22.876;2022-09-01T14:22:34;100725.13;;;30.10;41.86
59493;BME280;45497;43.996;22.876;2022-09-01T14:25:00;100717.53;;;30.07;41.74
59493;BME280;45497;43.996;22.876;2022-09-01T14:27:26;100717.84;;;30.06;41.63